createdAt,value
2023-08-11T00:00:05.939Z,17.80
2023-08-11T00:02:33.997Z,17.80
2023-08-11T00:05:02.182Z,17.70
2023-08-11T00:07:30.231Z,17.80
2023-08-11T00:09:58.436Z,17.70
2023-08-11T00:12:26.519Z,17.80
2023-08-11T00:14:56.218Z,17.80
2023-08-11T00:17:24.287Z,17.70
2023-08-11T00:19:52.379Z,17.80
2023-08-11T00:22:20.437Z,17.80
2023-08-11T00:24:48.631Z,17.80
2023-08-11T00:27:16.687Z,17.80
2023-08-11T00:29:44.715Z,17.80
2023-08-11T00:32:14.582Z,17.80
2023-08-11T00:34:42.697Z,17.80
2023-08-11T00:37:10.806Z,17.80
2023-08-11T00:39:38.937Z,17.80
2023-08-11T00:42:07.714Z,17.80
2023-08-11T00:44:35.709Z,17.80
2023-08-11T00:47:04.186Z,17.80
2023-08-11T00:49:34.376Z,17.80
2023-08-11T00:52:02.401Z,17.70
2023-08-11T00:54:31.338Z,17.70
2023-08-11T00:56:59.373Z,17.70
2023-08-11T00:59:27.707Z,17.70
2023-08-11T01:01:55.756Z,17.70
2023-08-11T01:04:23.803Z,17.70
2023-08-11T01:06:59.794Z,17.70
2023-08-11T01:09:36.232Z,17.70
2023-08-11T01:12:07.876Z,17.70
2023-08-11T01:14:38.779Z,17.80
2023-08-11T01:17:08.326Z,17.80
2023-08-11T01:19:49.069Z,17.80
2023-08-11T01:22:21.105Z,17.80
2023-08-11T01:24:50.888Z,17.80
2023-08-11T01:27:18.970Z,17.80
2023-08-11T01:29:47.121Z,17.80
2023-08-11T01:32:15.156Z,17.80
2023-08-11T01:34:43.144Z,17.80
2023-08-11T01:37:11.391Z,17.80
2023-08-11T01:39:39.829Z,17.80
2023-08-11T01:42:09.247Z,17.80
2023-08-11T01:44:37.321Z,17.80
2023-08-11T01:47:06.199Z,17.80
2023-08-11T01:49:34.612Z,17.80
2023-08-11T01:52:04.488Z,17.80
2023-08-11T01:54:32.537Z,17.80
2023-08-11T01:57:00.746Z,17.80
2023-08-11T01:59:31.000Z,17.70
2023-08-11T02:01:59.409Z,17.70
2023-08-11T02:04:27.458Z,17.80
2023-08-11T02:06:56.131Z,17.70
2023-08-11T02:09:24.171Z,17.70
2023-08-11T02:11:52.156Z,17.70
2023-08-11T02:14:20.189Z,17.70
2023-08-11T02:16:50.136Z,17.70
2023-08-11T02:19:18.208Z,17.70
2023-08-11T02:21:46.204Z,17.70
2023-08-11T02:24:14.306Z,17.70
2023-08-11T02:26:42.273Z,17.70
2023-08-11T02:29:10.919Z,17.70
2023-08-11T02:31:38.920Z,17.70
2023-08-11T02:34:08.271Z,17.70
2023-08-11T02:36:37.827Z,17.70
2023-08-11T02:39:06.447Z,17.70
2023-08-11T02:41:34.468Z,17.70
2023-08-11T02:44:03.307Z,17.70
2023-08-11T02:46:32.372Z,17.70
2023-08-11T02:49:00.380Z,17.70
2023-08-11T02:51:29.752Z,17.70
2023-08-11T02:53:57.775Z,17.70
2023-08-11T02:56:26.759Z,17.60
2023-08-11T02:58:57.863Z,17.60
2023-08-11T03:01:26.179Z,17.60
2023-08-11T03:03:54.219Z,17.60
2023-08-11T03:06:22.257Z,17.60
2023-08-11T03:08:51.581Z,17.60
2023-08-11T03:11:19.614Z,17.60
2023-08-11T03:13:47.631Z,17.60
2023-08-11T03:16:16.533Z,17.60
2023-08-11T03:18:45.001Z,17.60
2023-08-11T03:21:19.798Z,17.60
2023-08-11T03:23:48.711Z,17.60
2023-08-11T03:26:18.656Z,17.60
2023-08-11T03:28:46.670Z,17.60
2023-08-11T03:31:14.680Z,17.60
2023-08-11T03:33:42.746Z,17.60
2023-08-11T03:36:10.722Z,17.60
2023-08-11T03:38:38.726Z,17.60
2023-08-11T03:41:06.784Z,17.60
2023-08-11T03:43:36.128Z,17.60
2023-08-11T03:46:04.151Z,17.60
2023-08-11T03:48:32.313Z,17.60
2023-08-11T03:51:00.774Z,17.60
2023-08-11T03:53:28.771Z,17.60
2023-08-11T03:55:56.885Z,17.60
2023-08-11T03:58:24.878Z,17.60
2023-08-11T04:00:54.982Z,17.60
2023-08-11T04:03:24.604Z,17.60
2023-08-11T04:05:52.745Z,17.60
2023-08-11T04:08:21.777Z,17.60
2023-08-11T04:10:49.771Z,17.60
2023-08-11T04:13:17.876Z,17.60
2023-08-11T04:15:48.365Z,17.60
2023-08-11T04:18:18.909Z,17.60
2023-08-11T04:20:48.020Z,17.60
2023-08-11T04:23:16.203Z,17.50
2023-08-11T04:25:44.846Z,17.50
2023-08-11T04:28:14.848Z,17.50
2023-08-11T04:30:42.869Z,17.50
2023-08-11T04:33:11.192Z,17.50
2023-08-11T04:35:40.583Z,17.50
2023-08-11T04:38:08.668Z,17.50
2023-08-11T04:40:36.897Z,17.50
2023-08-11T04:43:05.360Z,17.50
2023-08-11T04:45:33.407Z,17.50
2023-08-11T04:48:01.753Z,17.40
2023-08-11T04:50:29.768Z,17.50
2023-08-11T04:52:59.195Z,17.40
2023-08-11T04:55:27.295Z,17.50
2023-08-11T04:57:55.738Z,17.40
2023-08-11T05:00:24.122Z,17.40
2023-08-11T05:02:53.558Z,17.30
2023-08-11T05:05:22.674Z,17.40
2023-08-11T05:07:51.314Z,17.40
2023-08-11T05:10:22.141Z,17.30
2023-08-11T05:12:50.508Z,17.40
2023-08-11T05:15:19.177Z,17.40
2023-08-11T05:17:47.486Z,17.40
2023-08-11T05:20:16.457Z,17.40
2023-08-11T05:22:45.951Z,17.40
2023-08-11T05:25:14.145Z,17.40
2023-08-11T05:27:43.528Z,17.40
2023-08-11T05:30:11.968Z,17.40
2023-08-11T05:32:40.730Z,17.40
2023-08-11T05:35:09.386Z,17.50
2023-08-11T05:37:38.808Z,17.40
2023-08-11T05:40:08.554Z,17.40
2023-08-11T05:42:36.676Z,17.50
2023-08-11T05:45:06.681Z,17.50
2023-08-11T05:47:35.695Z,17.50
2023-08-11T05:50:04.294Z,17.50
2023-08-11T05:52:32.388Z,17.50
2023-08-11T05:55:00.383Z,17.60
2023-08-11T05:57:28.377Z,17.60
2023-08-11T05:59:56.394Z,17.60
2023-08-11T06:02:25.750Z,17.60
2023-08-11T06:04:53.800Z,17.60
2023-08-11T06:07:21.794Z,17.70
2023-08-11T06:09:49.998Z,17.70
2023-08-11T06:12:18.100Z,17.80
2023-08-11T06:14:46.133Z,17.80
2023-08-11T06:17:14.281Z,17.80
2023-08-11T06:19:43.879Z,17.90
2023-08-11T06:22:11.973Z,17.90
2023-08-11T06:24:39.978Z,17.90
2023-08-11T06:27:08.690Z,18.00
2023-08-11T06:29:36.856Z,18.00
2023-08-11T06:32:05.173Z,18.10
2023-08-11T06:34:33.197Z,18.10
2023-08-11T06:37:02.519Z,18.20
2023-08-11T06:39:30.768Z,18.30
2023-08-11T06:41:58.818Z,18.30
2023-08-11T06:44:26.837Z,18.40
2023-08-11T06:46:54.828Z,18.40
2023-08-11T06:49:22.866Z,18.50
2023-08-11T06:51:50.870Z,18.50
2023-08-11T06:54:20.300Z,18.60
2023-08-11T06:56:48.387Z,18.70
2023-08-11T06:59:16.468Z,18.70
2023-08-11T07:01:44.519Z,18.80
2023-08-11T07:04:12.762Z,18.80
2023-08-11T07:06:40.768Z,18.90
2023-08-11T07:09:09.501Z,18.90
2023-08-11T07:11:38.871Z,19.00
2023-08-11T07:14:07.141Z,19.10
2023-08-11T07:16:35.300Z,19.10
2023-08-11T07:19:03.341Z,19.20
2023-08-11T07:21:31.354Z,19.20
2023-08-11T07:23:59.346Z,19.30
2023-08-11T07:26:27.356Z,19.40
2023-08-11T07:28:56.851Z,19.40
2023-08-11T07:31:24.967Z,19.50
2023-08-11T07:33:53.087Z,19.60
2023-08-11T07:36:21.558Z,19.60
2023-08-11T07:38:49.563Z,19.70
2023-08-11T07:41:17.819Z,19.70
2023-08-11T07:43:45.959Z,19.80
2023-08-11T07:46:15.428Z,19.90
2023-08-11T07:48:43.467Z,19.90
2023-08-11T07:51:11.581Z,20.00
2023-08-11T07:53:39.601Z,20.10
2023-08-11T07:56:08.795Z,20.10
2023-08-11T07:58:36.801Z,20.20
2023-08-11T08:01:04.811Z,20.30
2023-08-11T08:03:48.074Z,20.30
2023-08-11T08:06:18.587Z,20.40
2023-08-11T08:08:46.828Z,20.50
2023-08-11T08:11:14.812Z,20.50
2023-08-11T08:13:42.915Z,20.60
2023-08-11T08:16:11.249Z,20.70
2023-08-11T08:18:39.372Z,20.70
2023-08-11T08:21:07.429Z,20.80
2023-08-11T08:23:37.185Z,20.80
2023-08-11T08:26:05.406Z,20.90
2023-08-11T08:28:34.530Z,21.00
2023-08-11T08:31:03.227Z,21.00
2023-08-11T08:33:46.118Z,21.00
2023-08-11T08:36:15.770Z,21.10
2023-08-11T08:38:45.203Z,21.10
2023-08-11T08:41:14.820Z,21.20
2023-08-11T08:43:43.173Z,21.30
2023-08-11T08:46:12.576Z,21.40
2023-08-11T08:48:42.441Z,21.40
2023-08-11T08:51:10.677Z,21.40
2023-08-11T08:53:38.764Z,21.50
2023-08-11T08:56:08.755Z,21.50
2023-08-11T08:58:36.979Z,21.60
2023-08-11T09:01:08.162Z,21.70
2023-08-11T09:03:38.217Z,21.70
2023-08-11T09:06:07.250Z,21.70
2023-08-11T09:08:35.279Z,21.80
2023-08-11T09:11:03.284Z,21.80
2023-08-11T09:13:33.173Z,21.90
2023-08-11T09:16:02.218Z,21.90
2023-08-11T09:18:31.097Z,22.00
2023-08-11T09:20:59.115Z,22.00
2023-08-11T09:23:27.171Z,22.00
2023-08-11T09:25:56.102Z,22.10
2023-08-11T09:28:24.275Z,22.10
2023-08-11T09:30:53.761Z,22.10
2023-08-11T09:33:23.292Z,22.10
2023-08-11T09:35:51.396Z,22.20
2023-08-11T09:38:19.561Z,22.30
2023-08-11T09:40:48.425Z,22.30
2023-08-11T09:43:16.614Z,22.30
2023-08-11T09:45:44.845Z,22.40
2023-08-11T09:48:14.301Z,22.40
2023-08-11T09:50:42.883Z,22.40
2023-08-11T09:53:11.630Z,22.40
2023-08-11T09:55:42.636Z,22.40
2023-08-11T09:58:11.254Z,22.40
2023-08-11T10:00:40.359Z,22.40
2023-08-11T10:03:09.257Z,22.50
2023-08-11T10:05:39.364Z,22.50
2023-08-11T10:08:08.443Z,22.60
2023-08-11T10:10:37.876Z,22.70
2023-08-11T10:13:09.172Z,22.70
2023-08-11T10:15:37.643Z,22.70
2023-08-11T10:18:06.694Z,22.70
2023-08-11T10:20:35.389Z,22.80
2023-08-11T10:23:05.686Z,22.80
2023-08-11T10:25:34.117Z,22.90
2023-08-11T10:28:02.373Z,22.90
2023-08-11T10:30:30.429Z,23.10
2023-08-11T10:33:06.156Z,23.00
2023-08-11T10:35:37.353Z,23.10
2023-08-11T10:38:06.918Z,23.10
2023-08-11T10:40:39.426Z,23.20
2023-08-11T10:43:07.645Z,23.20
2023-08-11T10:45:37.314Z,23.30
2023-08-11T10:48:08.668Z,23.30
2023-08-11T10:50:38.035Z,23.40
2023-08-11T10:53:19.618Z,23.40
2023-08-11T10:55:59.916Z,23.40
2023-08-11T10:58:28.102Z,23.50
2023-08-11T11:00:56.167Z,23.50
2023-08-11T11:03:24.254Z,23.50
2023-08-11T11:05:52.351Z,23.60
2023-08-11T11:08:21.837Z,23.60
2023-08-11T11:10:51.030Z,23.70
2023-08-11T11:13:19.213Z,23.70
2023-08-11T11:15:47.468Z,23.70
2023-08-11T11:18:29.520Z,23.80
2023-08-11T11:20:57.572Z,23.80
2023-08-11T11:23:26.922Z,23.90
2023-08-11T11:25:54.908Z,23.90
2023-08-11T11:28:23.009Z,24.10
2023-08-11T11:30:51.483Z,24.20
2023-08-11T11:33:19.486Z,24.30
2023-08-11T11:35:47.530Z,24.30
2023-08-11T11:38:15.667Z,24.40
2023-08-11T11:40:45.108Z,24.50
2023-08-11T11:43:13.139Z,24.60
2023-08-11T11:45:41.592Z,24.70
2023-08-11T11:48:09.674Z,24.60
2023-08-11T11:50:37.809Z,24.70
2023-08-11T11:53:05.929Z,24.80
2023-08-11T11:55:33.964Z,24.80
2023-08-11T11:58:04.119Z,24.90
2023-08-11T12:00:34.350Z,24.90
2023-08-11T12:03:02.515Z,25.00
2023-08-11T12:05:30.520Z,25.00
2023-08-11T12:07:58.562Z,25.00
2023-08-11T12:10:32.415Z,25.10
2023-08-11T12:13:01.051Z,25.30
2023-08-11T12:15:30.398Z,25.40
2023-08-11T12:17:59.196Z,25.40
2023-08-11T12:20:27.420Z,25.50
2023-08-11T12:22:55.430Z,25.60
2023-08-11T12:25:24.194Z,25.70
2023-08-11T12:27:55.073Z,25.80
2023-08-11T12:30:23.173Z,25.90
2023-08-11T12:32:52.628Z,25.90
2023-08-11T12:35:20.865Z,26.00
2023-08-11T12:37:49.035Z,26.10
2023-08-11T12:40:19.686Z,26.20
2023-08-11T12:42:47.742Z,26.40
2023-08-11T12:45:15.751Z,26.40
2023-08-11T12:47:43.839Z,26.40
2023-08-11T12:50:13.922Z,26.60
2023-08-11T12:52:41.956Z,26.60
2023-08-11T12:55:10.439Z,26.80
2023-08-11T12:57:38.573Z,26.90
2023-08-11T13:00:11.344Z,27.00
2023-08-11T13:02:39.594Z,27.10
2023-08-11T13:05:07.974Z,27.20
2023-08-11T13:07:37.553Z,27.30
2023-08-11T13:10:06.108Z,27.40
2023-08-11T13:12:34.164Z,27.60
2023-08-11T13:15:02.185Z,27.70
2023-08-11T13:17:30.260Z,27.90
2023-08-11T13:19:58.512Z,28.00
2023-08-11T13:22:40.390Z,28.00
2023-08-11T13:25:10.455Z,28.10
2023-08-11T13:27:38.767Z,28.20
2023-08-11T13:30:08.876Z,28.40
2023-08-11T13:32:36.965Z,28.50
2023-08-11T13:35:06.223Z,28.70
2023-08-11T13:37:34.367Z,28.70
2023-08-11T13:40:02.388Z,28.80
2023-08-11T13:42:31.730Z,28.90
2023-08-11T13:44:59.829Z,29.10
2023-08-11T13:47:27.902Z,29.30
2023-08-11T13:49:55.992Z,29.50
2023-08-11T13:52:23.961Z,29.60
2023-08-11T13:54:58.893Z,29.70
2023-08-11T13:57:26.989Z,29.90
2023-08-11T13:59:57.828Z,30.00
2023-08-11T14:02:26.567Z,30.20
2023-08-11T14:04:54.714Z,30.50
2023-08-11T14:07:29.998Z,30.60
2023-08-11T14:09:58.922Z,30.80
2023-08-11T14:12:26.953Z,31.00
2023-08-11T14:14:56.371Z,31.20
2023-08-11T14:17:27.557Z,31.40
2023-08-11T14:19:55.584Z,31.70
2023-08-11T14:22:23.554Z,31.90
2023-08-11T14:24:53.403Z,31.90
2023-08-11T14:27:23.620Z,32.00
2023-08-11T14:29:51.960Z,32.10
2023-08-11T14:32:26.345Z,32.20
2023-08-11T14:34:54.915Z,32.40
2023-08-11T14:37:23.148Z,32.50
2023-08-11T14:39:51.458Z,32.70
2023-08-11T14:42:19.599Z,33.00
2023-08-11T14:44:47.615Z,33.30
2023-08-11T14:47:15.967Z,33.30
2023-08-11T14:49:45.602Z,33.40
2023-08-11T14:52:14.730Z,33.60
2023-08-11T14:54:43.584Z,33.80
2023-08-11T14:57:14.099Z,33.70
2023-08-11T14:59:42.418Z,33.80
2023-08-11T15:02:10.672Z,33.90
2023-08-11T15:04:39.181Z,34.10
2023-08-11T15:07:08.538Z,34.20
2023-08-11T15:09:36.792Z,34.30
2023-08-11T15:12:05.177Z,34.60
2023-08-11T15:14:33.182Z,35.00
2023-08-11T15:17:01.832Z,35.10
2023-08-11T15:19:30.945Z,35.00
2023-08-11T15:21:58.999Z,34.80
2023-08-11T15:24:28.377Z,34.90
2023-08-11T15:26:56.376Z,34.70
2023-08-11T15:29:24.385Z,34.70
2023-08-11T15:31:54.777Z,34.90
2023-08-11T15:34:23.041Z,34.70
2023-08-11T15:36:51.213Z,34.80
2023-08-11T15:39:19.196Z,34.70
2023-08-11T15:41:48.566Z,34.70
2023-08-11T15:44:16.585Z,34.60
2023-08-11T15:46:44.761Z,34.50
2023-08-11T15:49:14.747Z,34.70
2023-08-11T15:51:42.750Z,34.60
2023-08-11T15:54:11.012Z,34.50
2023-08-11T15:56:39.044Z,34.50
2023-08-11T15:59:09.041Z,34.50
2023-08-11T16:01:37.116Z,34.20
2023-08-11T16:04:05.719Z,34.10
2023-08-11T16:06:33.816Z,33.80
2023-08-11T16:09:01.964Z,33.60
2023-08-11T16:11:29.993Z,33.40
2023-08-11T16:13:57.966Z,33.20
2023-08-11T16:16:27.462Z,33.00
2023-08-11T16:18:55.460Z,32.90
2023-08-11T16:21:23.478Z,32.80
2023-08-11T16:23:51.512Z,32.70
2023-08-11T16:26:19.658Z,32.50
2023-08-11T16:28:47.717Z,32.30
2023-08-11T16:31:15.852Z,32.10
2023-08-11T16:33:45.191Z,31.90
2023-08-11T16:36:13.182Z,31.80
2023-08-11T16:38:41.239Z,31.70
2023-08-11T16:41:09.624Z,31.60
2023-08-11T16:43:37.650Z,31.50
2023-08-11T16:46:05.678Z,31.20
2023-08-11T16:48:33.719Z,31.00
2023-08-11T16:51:03.184Z,30.70
2023-08-11T16:53:31.286Z,30.40
2023-08-11T16:55:59.341Z,30.20
2023-08-11T16:58:27.464Z,30.10
2023-08-11T17:00:57.217Z,29.90
2023-08-11T17:03:26.270Z,29.80
2023-08-11T17:05:54.489Z,29.70
2023-08-11T17:08:23.926Z,29.60
2023-08-11T17:10:51.967Z,29.60
2023-08-11T17:13:19.957Z,29.50
2023-08-11T17:15:48.005Z,29.40
2023-08-11T17:18:16.081Z,29.30
2023-08-11T17:20:44.116Z,29.30
2023-08-11T17:23:12.150Z,29.20
2023-08-11T17:25:41.531Z,29.20
2023-08-11T17:28:09.582Z,29.10
2023-08-11T17:30:37.621Z,28.90
2023-08-11T17:33:05.915Z,28.90
2023-08-11T17:35:35.138Z,28.80
2023-08-11T17:38:04.430Z,28.70
2023-08-11T17:40:32.836Z,28.70
2023-08-11T17:43:02.252Z,28.60
2023-08-11T17:45:30.316Z,28.60
2023-08-11T17:47:58.400Z,28.40
2023-08-11T17:50:26.549Z,28.40
2023-08-11T17:52:54.639Z,28.30
2023-08-11T17:55:22.653Z,28.30
2023-08-11T17:57:50.767Z,28.20
2023-08-11T18:00:20.297Z,28.10
2023-08-11T18:02:48.704Z,28.10
2023-08-11T18:05:16.819Z,28.00
2023-08-11T18:07:45.450Z,28.00
2023-08-11T18:10:13.634Z,27.90
2023-08-11T18:12:41.650Z,27.80
2023-08-11T18:15:10.296Z,27.80
2023-08-11T18:17:39.716Z,27.80
2023-08-11T18:20:08.623Z,27.70
2023-08-11T18:22:36.643Z,27.70
2023-08-11T18:25:04.979Z,27.60
2023-08-11T18:27:34.256Z,27.60
2023-08-11T18:30:02.395Z,27.60
2023-08-11T18:32:30.676Z,27.50
2023-08-11T18:35:00.096Z,27.50
2023-08-11T18:37:28.077Z,27.40
2023-08-11T18:39:56.859Z,27.40
2023-08-11T18:42:24.957Z,27.30
2023-08-11T18:44:52.955Z,27.20
2023-08-11T18:47:20.965Z,27.10
2023-08-11T18:49:48.962Z,27.10
2023-08-11T18:52:18.523Z,27.10
2023-08-11T18:54:46.701Z,27.00
2023-08-11T18:57:14.705Z,27.00
2023-08-11T18:59:43.031Z,26.90
2023-08-11T19:02:12.249Z,26.90
2023-08-11T19:04:40.490Z,26.80
2023-08-11T19:07:08.465Z,26.80
2023-08-11T19:09:37.805Z,26.80
2023-08-11T19:12:06.227Z,26.80
2023-08-11T19:14:34.262Z,26.80
2023-08-11T19:17:02.254Z,26.70
2023-08-11T19:19:30.318Z,26.70
2023-08-11T19:21:58.438Z,26.70
2023-08-11T19:24:26.972Z,26.60
2023-08-11T19:26:56.348Z,26.60
2023-08-11T19:29:24.479Z,26.60
2023-08-11T19:31:53.450Z,26.50
2023-08-11T19:34:21.487Z,26.50
2023-08-11T19:36:49.470Z,26.40
2023-08-11T19:39:17.562Z,26.40
2023-08-11T19:41:45.552Z,26.30
2023-08-11T19:44:16.084Z,26.30
2023-08-11T19:46:44.250Z,26.30
2023-08-11T19:49:12.231Z,26.30
2023-08-11T19:51:45.216Z,26.20
2023-08-11T19:54:13.469Z,26.20
2023-08-11T19:56:42.296Z,26.20
2023-08-11T19:59:10.347Z,26.10
2023-08-11T20:01:39.873Z,26.10
2023-08-11T20:04:08.076Z,26.10
2023-08-11T20:06:36.142Z,26.00
2023-08-11T20:09:08.980Z,26.00
2023-08-11T20:11:37.278Z,26.00
2023-08-11T20:14:05.365Z,26.00
2023-08-11T20:16:33.576Z,25.90
2023-08-11T20:19:03.105Z,25.90
2023-08-11T20:21:31.148Z,25.80
2023-08-11T20:23:59.278Z,25.80
2023-08-11T20:26:27.337Z,25.80
2023-08-11T20:28:55.529Z,25.70
2023-08-11T20:31:23.641Z,25.60
2023-08-11T20:33:51.649Z,25.60
2023-08-11T20:36:21.073Z,25.60
2023-08-11T20:38:49.351Z,25.50
2023-08-11T20:41:17.509Z,25.50
2023-08-11T20:43:48.251Z,25.40
2023-08-11T20:46:17.583Z,25.40
2023-08-11T20:48:45.719Z,25.40
2023-08-11T20:51:14.664Z,25.40
2023-08-11T20:53:44.079Z,25.30
2023-08-11T20:56:12.106Z,25.30
2023-08-11T20:58:40.617Z,25.20
2023-08-11T21:01:10.949Z,25.20
2023-08-11T21:03:39.126Z,25.10
2023-08-11T21:06:07.208Z,25.20
2023-08-11T21:08:35.170Z,25.10
2023-08-11T21:11:05.464Z,25.10
2023-08-11T21:13:33.450Z,25.10
2023-08-11T21:16:01.470Z,24.90
2023-08-11T21:18:29.455Z,24.80
2023-08-11T21:20:57.667Z,24.70
2023-08-11T21:23:25.890Z,24.70
2023-08-11T21:25:53.878Z,24.70
2023-08-11T21:28:23.457Z,24.70
2023-08-11T21:31:03.845Z,24.70
2023-08-11T21:33:40.073Z,24.70
2023-08-11T21:36:08.072Z,24.60
2023-08-11T21:38:36.144Z,24.60
2023-08-11T21:41:04.682Z,24.50
2023-08-11T21:43:34.194Z,24.50
2023-08-11T21:46:02.384Z,24.50
2023-08-11T21:48:30.439Z,24.40
2023-08-11T21:50:58.427Z,24.30
2023-08-11T21:53:26.537Z,24.20
2023-08-11T21:55:54.516Z,24.10
2023-08-11T21:58:22.656Z,23.90
2023-08-11T22:00:52.203Z,23.80
2023-08-11T22:03:20.348Z,23.80
2023-08-11T22:05:48.415Z,23.70
2023-08-11T22:08:16.421Z,23.60
2023-08-11T22:10:46.159Z,23.60
2023-08-11T22:13:14.587Z,23.50
2023-08-11T22:15:42.628Z,23.50
2023-08-11T22:18:12.130Z,23.40
2023-08-11T22:20:40.220Z,23.40
2023-08-11T22:23:08.335Z,23.30
2023-08-11T22:25:36.634Z,23.30
2023-08-11T22:28:04.925Z,23.20
2023-08-11T22:30:33.430Z,23.20
2023-08-11T22:33:01.512Z,23.10
2023-08-11T22:35:30.948Z,23.10
2023-08-11T22:37:59.002Z,23.00
2023-08-11T22:40:27.019Z,23.00
2023-08-11T22:42:54.976Z,23.00
2023-08-11T22:45:23.499Z,23.00
2023-08-11T22:47:51.662Z,23.00
2023-08-11T22:50:19.716Z,22.90
2023-08-11T22:52:49.418Z,22.90
2023-08-11T22:55:17.551Z,22.80
2023-08-11T22:57:45.969Z,22.90
2023-08-11T23:00:14.315Z,22.90
2023-08-11T23:02:42.542Z,22.90
2023-08-11T23:05:10.770Z,22.90
2023-08-11T23:07:40.289Z,22.90
2023-08-11T23:10:10.323Z,22.90
2023-08-11T23:12:38.439Z,22.80
2023-08-11T23:15:07.244Z,22.80
2023-08-11T23:17:35.974Z,22.80
2023-08-11T23:20:04.487Z,22.80
2023-08-11T23:22:32.502Z,22.80
2023-08-11T23:25:02.261Z,22.70
2023-08-11T23:27:32.490Z,22.80
2023-08-11T23:30:00.555Z,22.70
2023-08-11T23:32:30.367Z,22.70
2023-08-11T23:34:59.059Z,22.70
2023-08-11T23:37:28.424Z,22.70
2023-08-11T23:39:56.905Z,22.70
2023-08-11T23:42:25.284Z,22.70
2023-08-11T23:44:55.364Z,22.60
2023-08-11T23:47:23.409Z,22.60
2023-08-11T23:49:51.448Z,22.60
2023-08-11T23:52:20.654Z,22.60
2023-08-11T23:54:52.189Z,22.60
2023-08-11T23:57:20.194Z,22.60
2023-08-11T23:59:48.192Z,22.60
